sensor_id;sensor_type;location;lat;lon;timestamp;temperature;humidity
64983;DHT22;69426;28.138;-15.436;2023-05-07T00:01:09;21.09;72.92
64983;DHT22;69426;28.138;-15.436;2023-05-07T00:03:36;21.10;72.39
64983;DHT22;69426;28.138;-15.436;2023-05-07T00:06:03;21.08;71.98
64983;DHT22;69426;28.138;-15.436;2023-05-07T00:08:29;21.23;73.28
64983;DHT22;69426;28.138;-15.436;2023-05-07T00:10:55;21.18;74.01
64983;DHT22;69426;28.138;-15.436;2023-05-07T00:13:20;21.10;73.99
64983;DHT22;69426;28.138;-15.436;2023-05-07T00:15:47;21.05;73.09
64983;DHT22;69426;28.138;-15.436;2023-05-07T00:18:13;21.10;73.57
64983;DHT22;69426;28.138;-15.436;2023-05-07T00:20:39;21.20;74.25
64983;DHT22;69426;28.138;-15.436;2023-05-07T00:23:04;21.09;74.05
64983;DHT22;69426;28.138;-15.436;2023-05-07T00:25:30;21.06;73.48
64983;DHT22;69426;28.138;-15.436;2023-05-07T00:27:56;21.02;72.67
64983;DHT22;69426;28.138;-15.436;2023-05-07T00:30:28;21.13;73.41
64983;DHT22;69426;28.138;-15.436;2023-05-07T00:32:53;21.09;72.97
64983;DHT22;69426;28.138;-15.436;2023-05-07T00:35:19;21.08;73.30
64983;DHT22;69426;28.138;-15.436;2023-05-07T00:37:45;21.03;73.02
64983;DHT22;69426;28.138;-15.436;2023-05-07T00:40:11;21.08;72.85
64983;DHT22;69426;28.138;-15.436;2023-05-07T00:42:36;21.19;73.46
64983;DHT22;69426;28.138;-15.436;2023-05-07T00:45:03;21.19;74.80
64983;DHT22;69426;28.138;-15.436;2023-05-07T00:47:28;21.19;75.03
64983;DHT22;69426;28.138;-15.436;2023-05-07T00:49:54;21.19;75.51
64983;DHT22;69426;28.138;-15.436;2023-05-07T00:52:21;21.12;74.92
64983;DHT22;69426;28.138;-15.436;2023-05-07T00:54:48;21.18;76.01
64983;DHT22;69426;28.138;-15.436;2023-05-07T00:57:14;21.00;75.33
64983;DHT22;69426;28.138;-15.436;2023-05-07T00:59:41;21.03;75.29
64983;DHT22;69426;28.138;-15.436;2023-05-07T01:02:07;21.16;76.20
64983;DHT22;69426;28.138;-15.436;2023-05-07T01:04:33;21.10;75.96
64983;DHT22;69426;28.138;-15.436;2023-05-07T01:06:59;21.13;75.59
64983;DHT22;69426;28.138;-15.436;2023-05-07T01:09:27;21.09;75.23
64983;DHT22;69426;28.138;-15.436;2023-05-07T01:11:55;21.20;75.54
64983;DHT22;69426;28.138;-15.436;2023-05-07T01:14:23;21.19;76.06
64983;DHT22;69426;28.138;-15.436;2023-05-07T01:16:48;21.10;75.88
64983;DHT22;69426;28.138;-15.436;2023-05-07T01:19:18;21.09;75.65
64983;DHT22;69426;28.138;-15.436;2023-05-07T01:21:48;21.08;75.37
64983;DHT22;69426;28.138;-15.436;2023-05-07T01:24:14;20.98;74.63
64983;DHT22;69426;28.138;-15.436;2023-05-07T01:26:41;21.05;75.04
64983;DHT22;69426;28.138;-15.436;2023-05-07T01:29:07;20.98;74.77
64983;DHT22;69426;28.138;-15.436;2023-05-07T01:31:34;20.84;73.01
64983;DHT22;69426;28.138;-15.436;2023-05-07T01:34:01;20.94;73.33
64983;DHT22;69426;28.138;-15.436;2023-05-07T01:36:30;20.91;73.10
64983;DHT22;69426;28.138;-15.436;2023-05-07T01:38:57;20.98;73.43
64983;DHT22;69426;28.138;-15.436;2023-05-07T01:41:24;21.02;74.12
64983;DHT22;69426;28.138;-15.436;2023-05-07T01:43:50;21.05;74.35
64983;DHT22;69426;28.138;-15.436;2023-05-07T01:46:17;21.06;75.00
64983;DHT22;69426;28.138;-15.436;2023-05-07T01:48:45;21.02;75.02
64983;DHT22;69426;28.138;-15.436;2023-05-07T01:51:11;20.99;74.26
64983;DHT22;69426;28.138;-15.436;2023-05-07T01:53:40;21.10;75.39
64983;DHT22;69426;28.138;-15.436;2023-05-07T01:56:07;21.09;74.70
64983;DHT22;69426;28.138;-15.436;2023-05-07T01:58:33;21.09;75.38
64983;DHT22;69426;28.138;-15.436;2023-05-07T02:00:59;21.00;74.14
64983;DHT22;69426;28.138;-15.436;2023-05-07T02:03:24;20.99;73.63
64983;DHT22;69426;28.138;-15.436;2023-05-07T02:05:51;20.96;73.27
64983;DHT22;69426;28.138;-15.436;2023-05-07T02:08:16;21.06;73.66
64983;DHT22;69426;28.138;-15.436;2023-05-07T02:10:42;21.10;74.83
64983;DHT22;69426;28.138;-15.436;2023-05-07T02:13:08;21.16;75.64
64983;DHT22;69426;28.138;-15.436;2023-05-07T02:15:34;21.06;75.32
64983;DHT22;69426;28.138;-15.436;2023-05-07T02:18:05;20.98;75.27
64983;DHT22;69426;28.138;-15.436;2023-05-07T02:20:35;21.02;75.79
64983;DHT22;69426;28.138;-15.436;2023-05-07T02:23:00;20.99;76.02
64983;DHT22;69426;28.138;-15.436;2023-05-07T02:25:26;20.92;75.60
64983;DHT22;69426;28.138;-15.436;2023-05-07T02:27:52;20.95;75.47
64983;DHT22;69426;28.138;-15.436;2023-05-07T02:30:18;20.99;76.18
64983;DHT22;69426;28.138;-15.436;2023-05-07T02:32:44;20.92;75.87
64983;DHT22;69426;28.138;-15.436;2023-05-07T02:35:10;20.91;75.68
64983;DHT22;69426;28.138;-15.436;2023-05-07T02:37:35;20.89;74.86
64983;DHT22;69426;28.138;-15.436;2023-05-07T02:40:01;20.89;74.50
64983;DHT22;69426;28.138;-15.436;2023-05-07T02:42:28;20.96;75.63
64983;DHT22;69426;28.138;-15.436;2023-05-07T02:44:54;20.96;75.49
64983;DHT22;69426;28.138;-15.436;2023-05-07T02:47:20;20.92;75.45
64983;DHT22;69426;28.138;-15.436;2023-05-07T02:49:46;21.03;75.91
64983;DHT22;69426;28.138;-15.436;2023-05-07T02:52:11;21.06;76.29
64983;DHT22;69426;28.138;-15.436;2023-05-07T02:54:37;21.08;76.10
64983;DHT22;69426;28.138;-15.436;2023-05-07T02:57:03;20.96;74.77
64983;DHT22;69426;28.138;-15.436;2023-05-07T02:59:29;20.96;73.98
64983;DHT22;69426;28.138;-15.436;2023-05-07T03:01:54;20.96;73.27
64983;DHT22;69426;28.138;-15.436;2023-05-07T03:04:20;20.98;72.89
64983;DHT22;69426;28.138;-15.436;2023-05-07T03:06:46;21.08;74.19
64983;DHT22;69426;28.138;-15.436;2023-05-07T03:09:11;21.03;74.15
64983;DHT22;69426;28.138;-15.436;2023-05-07T03:11:37;21.05;74.29
64983;DHT22;69426;28.138;-15.436;2023-05-07T03:14:03;21.08;74.63
64983;DHT22;69426;28.138;-15.436;2023-05-07T03:16:29;21.09;74.34
64983;DHT22;69426;28.138;-15.436;2023-05-07T03:18:54;20.99;73.56
64983;DHT22;69426;28.138;-15.436;2023-05-07T03:21:20;20.96;73.38
64983;DHT22;69426;28.138;-15.436;2023-05-07T03:23:46;20.89;72.72
64983;DHT22;69426;28.138;-15.436;2023-05-07T03:26:12;20.88;72.81
64983;DHT22;69426;28.138;-15.436;2023-05-07T03:28:37;20.85;72.85
64983;DHT22;69426;28.138;-15.436;2023-05-07T03:31:03;20.85;72.74
64983;DHT22;69426;28.138;-15.436;2023-05-07T03:33:29;20.85;72.72
64983;DHT22;69426;28.138;-15.436;2023-05-07T03:35:55;20.81;72.58
64983;DHT22;69426;28.138;-15.436;2023-05-07T03:38:20;20.81;72.37
64983;DHT22;69426;28.138;-15.436;2023-05-07T03:40:46;20.87;72.34
64983;DHT22;69426;28.138;-15.436;2023-05-07T03:43:12;20.85;72.32
64983;DHT22;69426;28.138;-15.436;2023-05-07T03:45:37;20.87;71.97
64983;DHT22;69426;28.138;-15.436;2023-05-07T03:48:03;20.87;71.78
64983;DHT22;69426;28.138;-15.436;2023-05-07T03:50:29;20.88;71.71
64983;DHT22;69426;28.138;-15.436;2023-05-07T03:52:55;20.94;71.85
64983;DHT22;69426;28.138;-15.436;2023-05-07T03:55:21;20.96;71.81
64983;DHT22;69426;28.138;-15.436;2023-05-07T03:57:47;20.91;71.29
64983;DHT22;69426;28.138;-15.436;2023-05-07T04:00:13;20.94;71.04
64983;DHT22;69426;28.138;-15.436;2023-05-07T04:02:39;20.95;70.89
64983;DHT22;69426;28.138;-15.436;2023-05-07T04:05:05;20.96;71.35
64983;DHT22;69426;28.138;-15.436;2023-05-07T04:07:30;20.99;71.65
64983;DHT22;69426;28.138;-15.436;2023-05-07T04:09:56;21.03;72.25
64983;DHT22;69426;28.138;-15.436;2023-05-07T04:12:22;21.03;72.22
64983;DHT22;69426;28.138;-15.436;2023-05-07T04:14:47;21.03;73.51
64983;DHT22;69426;28.138;-15.436;2023-05-07T04:17:13;21.00;73.36
64983;DHT22;69426;28.138;-15.436;2023-05-07T04:19:39;21.08;74.64
64983;DHT22;69426;28.138;-15.436;2023-05-07T04:22:05;20.95;75.92
64983;DHT22;69426;28.138;-15.436;2023-05-07T04:24:33;20.91;76.78
64983;DHT22;69426;28.138;-15.436;2023-05-07T04:26:59;20.88;77.25
64983;DHT22;69426;28.138;-15.436;2023-05-07T04:29:25;20.82;76.70
64983;DHT22;69426;28.138;-15.436;2023-05-07T04:31:51;20.79;76.30
64983;DHT22;69426;28.138;-15.436;2023-05-07T04:34:16;20.74;75.80
64983;DHT22;69426;28.138;-15.436;2023-05-07T04:36:42;20.74;74.46
64983;DHT22;69426;28.138;-15.436;2023-05-07T04:39:08;20.74;73.82
64983;DHT22;69426;28.138;-15.436;2023-05-07T04:41:36;20.79;73.92
64983;DHT22;69426;28.138;-15.436;2023-05-07T04:44:02;20.75;73.77
64983;DHT22;69426;28.138;-15.436;2023-05-07T04:46:29;20.68;73.36
64983;DHT22;69426;28.138;-15.436;2023-05-07T04:48:55;20.65;73.30
64983;DHT22;69426;28.138;-15.436;2023-05-07T04:51:20;20.69;73.29
64983;DHT22;69426;28.138;-15.436;2023-05-07T04:53:46;20.68;73.33
64983;DHT22;69426;28.138;-15.436;2023-05-07T04:56:12;20.67;73.66
64983;DHT22;69426;28.138;-15.436;2023-05-07T04:58:38;20.68;73.90
64983;DHT22;69426;28.138;-15.436;2023-05-07T05:01:03;20.75;73.89
64983;DHT22;69426;28.138;-15.436;2023-05-07T05:03:30;20.74;73.90
64983;DHT22;69426;28.138;-15.436;2023-05-07T05:05:55;20.78;74.33
64983;DHT22;69426;28.138;-15.436;2023-05-07T05:08:24;20.69;73.81
64983;DHT22;69426;28.138;-15.436;2023-05-07T05:10:50;20.67;73.49
64983;DHT22;69426;28.138;-15.436;2023-05-07T05:13:17;20.67;73.17
64983;DHT22;69426;28.138;-15.436;2023-05-07T05:15:43;20.67;73.07
64983;DHT22;69426;28.138;-15.436;2023-05-07T05:18:08;20.64;72.86
64983;DHT22;69426;28.138;-15.436;2023-05-07T05:20:34;20.69;73.29
64983;DHT22;69426;28.138;-15.436;2023-05-07T05:23:00;20.69;73.25
64983;DHT22;69426;28.138;-15.436;2023-05-07T05:25:25;20.61;73.16
64983;DHT22;69426;28.138;-15.436;2023-05-07T05:27:51;20.61;73.10
64983;DHT22;69426;28.138;-15.436;2023-05-07T05:30:17;20.65;72.93
64983;DHT22;69426;28.138;-15.436;2023-05-07T05:32:43;20.69;72.79
64983;DHT22;69426;28.138;-15.436;2023-05-07T05:35:08;20.68;72.99
64983;DHT22;69426;28.138;-15.436;2023-05-07T05:37:34;20.74;72.85
64983;DHT22;69426;28.138;-15.436;2023-05-07T05:40:00;20.74;72.75
64983;DHT22;69426;28.138;-15.436;2023-05-07T05:42:25;20.71;72.86
64983;DHT22;69426;28.138;-15.436;2023-05-07T05:44:51;20.72;72.88
64983;DHT22;69426;28.138;-15.436;2023-05-07T05:47:17;20.69;72.27
64983;DHT22;69426;28.138;-15.436;2023-05-07T05:49:42;20.71;72.44
64983;DHT22;69426;28.138;-15.436;2023-05-07T05:52:09;20.78;74.04
64983;DHT22;69426;28.138;-15.436;2023-05-07T05:54:35;20.68;73.84
64983;DHT22;69426;28.138;-15.436;2023-05-07T05:57:01;20.71;73.59
64983;DHT22;69426;28.138;-15.436;2023-05-07T05:59:29;20.74;73.70
64983;DHT22;69426;28.138;-15.436;2023-05-07T06:01:55;20.69;73.21
64983;DHT22;69426;28.138;-15.436;2023-05-07T06:04:20;20.68;72.85
64983;DHT22;69426;28.138;-15.436;2023-05-07T06:06:46;20.67;72.23
64983;DHT22;69426;28.138;-15.436;2023-05-07T06:09:12;20.72;72.45
64983;DHT22;69426;28.138;-15.436;2023-05-07T06:11:37;20.74;72.46
64983;DHT22;69426;28.138;-15.436;2023-05-07T06:14:03;20.78;73.03
64983;DHT22;69426;28.138;-15.436;2023-05-07T06:16:29;20.84;73.55
64983;DHT22;69426;28.138;-15.436;2023-05-07T06:18:55;20.78;73.27
64983;DHT22;69426;28.138;-15.436;2023-05-07T06:21:20;20.91;74.46
64983;DHT22;69426;28.138;-15.436;2023-05-07T06:23:46;20.82;74.10
64983;DHT22;69426;28.138;-15.436;2023-05-07T06:26:13;20.77;73.39
64983;DHT22;69426;28.138;-15.436;2023-05-07T06:28:39;20.85;73.91
64983;DHT22;69426;28.138;-15.436;2023-05-07T06:31:15;20.77;72.53
64983;DHT22;69426;28.138;-15.436;2023-05-07T06:33:41;20.87;73.20
64983;DHT22;69426;28.138;-15.436;2023-05-07T06:36:07;20.89;74.06
64983;DHT22;69426;28.138;-15.436;2023-05-07T06:38:32;20.91;74.53
64983;DHT22;69426;28.138;-15.436;2023-05-07T06:40:58;20.87;74.75
64983;DHT22;69426;28.138;-15.436;2023-05-07T06:43:24;20.91;74.51
64983;DHT22;69426;28.138;-15.436;2023-05-07T06:45:49;20.88;74.96
64983;DHT22;69426;28.138;-15.436;2023-05-07T06:48:15;20.85;75.30
64983;DHT22;69426;28.138;-15.436;2023-05-07T06:50:41;20.85;75.45
64983;DHT22;69426;28.138;-15.436;2023-05-07T06:53:07;20.81;75.72
64983;DHT22;69426;28.138;-15.436;2023-05-07T06:55:33;20.81;75.33
64983;DHT22;69426;28.138;-15.436;2023-05-07T06:57:59;20.85;75.95
64983;DHT22;69426;28.138;-15.436;2023-05-07T07:00:27;20.84;74.96
64983;DHT22;69426;28.138;-15.436;2023-05-07T07:02:54;20.77;73.54
64983;DHT22;69426;28.138;-15.436;2023-05-07T07:05:20;20.82;72.43
64983;DHT22;69426;28.138;-15.436;2023-05-07T07:07:45;20.81;71.36
64983;DHT22;69426;28.138;-15.436;2023-05-07T07:10:19;20.84;71.42
64983;DHT22;69426;28.138;-15.436;2023-05-07T07:12:45;20.88;71.10
64983;DHT22;69426;28.138;-15.436;2023-05-07T07:15:11;20.89;70.95
64983;DHT22;69426;28.138;-15.436;2023-05-07T07:17:36;20.84;69.77
64983;DHT22;69426;28.138;-15.436;2023-05-07T07:20:02;20.82;69.48
64983;DHT22;69426;28.138;-15.436;2023-05-07T07:22:28;20.87;69.44
64983;DHT22;69426;28.138;-15.436;2023-05-07T07:24:54;20.84;68.66
64983;DHT22;69426;28.138;-15.436;2023-05-07T07:27:20;20.95;68.70
64983;DHT22;69426;28.138;-15.436;2023-05-07T07:29:46;21.05;69.24
64983;DHT22;69426;28.138;-15.436;2023-05-07T07:32:11;21.05;68.96
64983;DHT22;69426;28.138;-15.436;2023-05-07T07:34:37;21.02;69.30
64983;DHT22;69426;28.138;-15.436;2023-05-07T07:37:02;21.13;69.76
64983;DHT22;69426;28.138;-15.436;2023-05-07T07:39:34;21.05;68.82
64983;DHT22;69426;28.138;-15.436;2023-05-07T07:42:00;21.12;68.31
64983;DHT22;69426;28.138;-15.436;2023-05-07T07:44:27;21.23;68.82
64983;DHT22;69426;28.138;-15.436;2023-05-07T07:46:53;21.25;68.87
64983;DHT22;69426;28.138;-15.436;2023-05-07T07:49:19;21.23;69.22
64983;DHT22;69426;28.138;-15.436;2023-05-07T07:51:45;21.36;69.95
64983;DHT22;69426;28.138;-15.436;2023-05-07T07:54:10;21.23;69.47
64983;DHT22;69426;28.138;-15.436;2023-05-07T07:56:36;21.15;68.26
64983;DHT22;69426;28.138;-15.436;2023-05-07T07:59:02;21.13;68.51
64983;DHT22;69426;28.138;-15.436;2023-05-07T08:01:31;21.16;68.88
64983;DHT22;69426;28.138;-15.436;2023-05-07T08:03:57;21.15;68.83
64983;DHT22;69426;28.138;-15.436;2023-05-07T08:06:25;21.09;68.46
64983;DHT22;69426;28.138;-15.436;2023-05-07T08:08:52;21.22;68.64
64983;DHT22;69426;28.138;-15.436;2023-05-07T08:11:17;21.19;68.10
64983;DHT22;69426;28.138;-15.436;2023-05-07T08:13:43;21.18;67.70
64983;DHT22;69426;28.138;-15.436;2023-05-07T08:16:10;21.33;68.02
64983;DHT22;69426;28.138;-15.436;2023-05-07T08:18:36;21.35;67.82
64983;DHT22;69426;28.138;-15.436;2023-05-07T08:21:01;21.42;68.40
64983;DHT22;69426;28.138;-15.436;2023-05-07T08:23:27;21.27;69.65
64983;DHT22;69426;28.138;-15.436;2023-05-07T08:25:53;21.35;70.19
64983;DHT22;69426;28.138;-15.436;2023-05-07T08:28:19;21.30;69.09
64983;DHT22;69426;28.138;-15.436;2023-05-07T08:30:46;21.23;69.64
64983;DHT22;69426;28.138;-15.436;2023-05-07T08:33:12;21.20;69.34
64983;DHT22;69426;28.138;-15.436;2023-05-07T08:35:38;21.18;68.42
64983;DHT22;69426;28.138;-15.436;2023-05-07T08:38:04;21.36;68.09
64983;DHT22;69426;28.138;-15.436;2023-05-07T08:40:34;21.37;67.97
64983;DHT22;69426;28.138;-15.436;2023-05-07T08:43:02;21.36;67.91
64983;DHT22;69426;28.138;-15.436;2023-05-07T08:45:29;21.35;69.39
64983;DHT22;69426;28.138;-15.436;2023-05-07T08:47:59;21.45;68.46
64983;DHT22;69426;28.138;-15.436;2023-05-07T08:50:25;21.42;67.78
64983;DHT22;69426;28.138;-15.436;2023-05-07T08:52:51;21.43;67.99
64983;DHT22;69426;28.138;-15.436;2023-05-07T08:55:17;21.58;67.73
64983;DHT22;69426;28.138;-15.436;2023-05-07T08:57:42;21.53;67.34
64983;DHT22;69426;28.138;-15.436;2023-05-07T09:00:08;21.49;67.04
64983;DHT22;69426;28.138;-15.436;2023-05-07T09:02:36;21.50;67.66
64983;DHT22;69426;28.138;-15.436;2023-05-07T09:05:02;21.68;67.62
64983;DHT22;69426;28.138;-15.436;2023-05-07T09:07:30;21.60;66.78
64983;DHT22;69426;28.138;-15.436;2023-05-07T09:09:55;21.35;66.49
64983;DHT22;69426;28.138;-15.436;2023-05-07T09:12:22;21.46;66.02
64983;DHT22;69426;28.138;-15.436;2023-05-07T09:14:49;21.54;66.29
64983;DHT22;69426;28.138;-15.436;2023-05-07T09:17:18;21.37;68.03
64983;DHT22;69426;28.138;-15.436;2023-05-07T09:19:44;21.27;67.49
64983;DHT22;69426;28.138;-15.436;2023-05-07T09:22:13;21.46;65.51
64983;DHT22;69426;28.138;-15.436;2023-05-07T09:24:39;21.60;64.50
64983;DHT22;69426;28.138;-15.436;2023-05-07T09:27:06;21.46;65.55
64983;DHT22;69426;28.138;-15.436;2023-05-07T09:29:35;21.58;66.71
64983;DHT22;69426;28.138;-15.436;2023-05-07T09:32:02;21.43;67.33
64983;DHT22;69426;28.138;-15.436;2023-05-07T09:34:29;21.43;67.27
64983;DHT22;69426;28.138;-15.436;2023-05-07T09:36:55;21.51;67.52
64983;DHT22;69426;28.138;-15.436;2023-05-07T09:39:23;21.39;67.28
64983;DHT22;69426;28.138;-15.436;2023-05-07T09:41:49;21.45;65.95
64983;DHT22;69426;28.138;-15.436;2023-05-07T09:44:17;21.35;67.74
64983;DHT22;69426;28.138;-15.436;2023-05-07T09:46:43;21.37;66.78
64983;DHT22;69426;28.138;-15.436;2023-05-07T09:49:17;21.46;66.56
64983;DHT22;69426;28.138;-15.436;2023-05-07T09:51:49;21.36;66.95
64983;DHT22;69426;28.138;-15.436;2023-05-07T09:54:16;21.57;68.13
64983;DHT22;69426;28.138;-15.436;2023-05-07T09:56:45;21.40;67.52
64983;DHT22;69426;28.138;-15.436;2023-05-07T09:59:14;21.46;66.89
64983;DHT22;69426;28.138;-15.436;2023-05-07T10:01:42;21.29;64.53
64983;DHT22;69426;28.138;-15.436;2023-05-07T10:04:08;21.26;65.29
64983;DHT22;69426;28.138;-15.436;2023-05-07T10:06:35;21.50;65.68
64983;DHT22;69426;28.138;-15.436;2023-05-07T10:09:02;21.33;66.51
64983;DHT22;69426;28.138;-15.436;2023-05-07T10:11:28;21.37;66.71
64983;DHT22;69426;28.138;-15.436;2023-05-07T10:13:54;21.19;66.30
64983;DHT22;69426;28.138;-15.436;2023-05-07T10:16:21;21.39;66.95
64983;DHT22;69426;28.138;-15.436;2023-05-07T10:18:47;21.29;67.79
64983;DHT22;69426;28.138;-15.436;2023-05-07T10:21:18;21.33;66.64
64983;DHT22;69426;28.138;-15.436;2023-05-07T10:24:16;21.26;65.36
64983;DHT22;69426;28.138;-15.436;2023-05-07T10:26:48;21.36;64.57
64983;DHT22;69426;28.138;-15.436;2023-05-07T10:31:54;21.33;65.00
64983;DHT22;69426;28.138;-15.436;2023-05-07T10:34:24;21.33;65.26
64983;DHT22;69426;28.138;-15.436;2023-05-07T10:36:51;21.40;66.33
64983;DHT22;69426;28.138;-15.436;2023-05-07T10:39:19;21.45;67.84
64983;DHT22;69426;28.138;-15.436;2023-05-07T10:41:46;21.33;66.29
64983;DHT22;69426;28.138;-15.436;2023-05-07T10:44:12;21.45;64.26
64983;DHT22;69426;28.138;-15.436;2023-05-07T10:47:08;21.53;62.98
64983;DHT22;69426;28.138;-15.436;2023-05-07T10:49:36;21.68;63.56
64983;DHT22;69426;28.138;-15.436;2023-05-07T10:52:24;21.61;64.25
64983;DHT22;69426;28.138;-15.436;2023-05-07T10:57:40;21.85;63.27
64983;DHT22;69426;28.138;-15.436;2023-05-07T11:05:32;21.60;65.17
64983;DHT22;69426;28.138;-15.436;2023-05-07T11:08:00;21.70;65.36
64983;DHT22;69426;28.138;-15.436;2023-05-07T11:10:52;21.73;65.76
64983;DHT22;69426;28.138;-15.436;2023-05-07T11:13:40;21.75;64.04
64983;DHT22;69426;28.138;-15.436;2023-05-07T11:16:05;21.75;63.99
64983;DHT22;69426;28.138;-15.436;2023-05-07T11:18:52;21.88;64.51
64983;DHT22;69426;28.138;-15.436;2023-05-07T11:21:40;21.88;66.03
64983;DHT22;69426;28.138;-15.436;2023-05-07T11:24:07;21.85;63.83
64983;DHT22;69426;28.138;-15.436;2023-05-07T11:26:48;21.90;63.66
64983;DHT22;69426;28.138;-15.436;2023-05-07T11:29:17;21.80;61.86
64983;DHT22;69426;28.138;-15.436;2023-05-07T11:31:43;22.01;60.87
64983;DHT22;69426;28.138;-15.436;2023-05-07T11:34:09;22.06;61.24
64983;DHT22;69426;28.138;-15.436;2023-05-07T11:36:35;22.28;61.53
64983;DHT22;69426;28.138;-15.436;2023-05-07T11:39:01;22.08;61.73
64983;DHT22;69426;28.138;-15.436;2023-05-07T11:41:34;22.42;61.98
64983;DHT22;69426;28.138;-15.436;2023-05-07T11:44:01;22.55;62.58
64983;DHT22;69426;28.138;-15.436;2023-05-07T11:46:27;22.23;64.23
64983;DHT22;69426;28.138;-15.436;2023-05-07T11:48:54;22.05;62.89
64983;DHT22;69426;28.138;-15.436;2023-05-07T11:51:21;22.15;62.72
64983;DHT22;69426;28.138;-15.436;2023-05-07T11:53:48;22.26;62.80
64983;DHT22;69426;28.138;-15.436;2023-05-07T11:56:15;22.15;63.33
64983;DHT22;69426;28.138;-15.436;2023-05-07T11:58:43;22.02;64.09
64983;DHT22;69426;28.138;-15.436;2023-05-07T12:01:10;21.97;63.11
64983;DHT22;69426;28.138;-15.436;2023-05-07T12:03:37;22.11;62.33
64983;DHT22;69426;28.138;-15.436;2023-05-07T12:06:05;22.28;63.07
64983;DHT22;69426;28.138;-15.436;2023-05-07T12:08:32;22.25;64.12
64983;DHT22;69426;28.138;-15.436;2023-05-07T12:10:58;22.08;63.32
64983;DHT22;69426;28.138;-15.436;2023-05-07T12:13:25;22.28;61.98
64983;DHT22;69426;28.138;-15.436;2023-05-07T12:15:52;22.12;61.94
64983;DHT22;69426;28.138;-15.436;2023-05-07T12:18:18;22.26;62.67
64983;DHT22;69426;28.138;-15.436;2023-05-07T12:20:44;22.14;61.30
64983;DHT22;69426;28.138;-15.436;2023-05-07T12:23:10;22.08;61.92
64983;DHT22;69426;28.138;-15.436;2023-05-07T12:25:38;22.25;63.84
64983;DHT22;69426;28.138;-15.436;2023-05-07T12:28:04;22.04;63.66
64983;DHT22;69426;28.138;-15.436;2023-05-07T12:30:32;22.05;62.22
64983;DHT22;69426;28.138;-15.436;2023-05-07T12:32:58;22.09;65.79
64983;DHT22;69426;28.138;-15.436;2023-05-07T12:35:31;21.97;64.17
64983;DHT22;69426;28.138;-15.436;2023-05-07T12:37:58;22.04;64.77
64983;DHT22;69426;28.138;-15.436;2023-05-07T12:40:35;22.08;63.87
64983;DHT22;69426;28.138;-15.436;2023-05-07T12:43:01;22.12;62.07
64983;DHT22;69426;28.138;-15.436;2023-05-07T12:45:27;22.14;62.54
64983;DHT22;69426;28.138;-15.436;2023-05-07T12:47:53;22.15;63.44
64983;DHT22;69426;28.138;-15.436;2023-05-07T12:50:18;22.12;63.91
64983;DHT22;69426;28.138;-15.436;2023-05-07T12:52:47;22.06;64.48
64983;DHT22;69426;28.138;-15.436;2023-05-07T12:55:16;21.98;63.74
64983;DHT22;69426;28.138;-15.436;2023-05-07T12:57:45;21.88;64.17
64983;DHT22;69426;28.138;-15.436;2023-05-07T13:00:13;21.94;63.31
64983;DHT22;69426;28.138;-15.436;2023-05-07T13:02:40;22.01;63.81
64983;DHT22;69426;28.138;-15.436;2023-05-07T13:05:07;21.95;62.76
64983;DHT22;69426;28.138;-15.436;2023-05-07T13:07:33;21.80;61.92
64983;DHT22;69426;28.138;-15.436;2023-05-07T13:09:59;21.88;62.10
64983;DHT22;69426;28.138;-15.436;2023-05-07T13:12:25;21.83;62.85
64983;DHT22;69426;28.138;-15.436;2023-05-07T13:14:51;21.94;61.82
64983;DHT22;69426;28.138;-15.436;2023-05-07T13:17:17;21.77;62.07
64983;DHT22;69426;28.138;-15.436;2023-05-07T13:19:43;21.73;62.70
64983;DHT22;69426;28.138;-15.436;2023-05-07T13:22:09;21.85;61.26
64983;DHT22;69426;28.138;-15.436;2023-05-07T13:24:36;21.70;62.10
64983;DHT22;69426;28.138;-15.436;2023-05-07T13:27:01;22.18;61.93
64983;DHT22;69426;28.138;-15.436;2023-05-07T13:29:28;21.68;62.01
64983;DHT22;69426;28.138;-15.436;2023-05-07T13:31:56;21.84;62.09
64983;DHT22;69426;28.138;-15.436;2023-05-07T13:34:22;21.80;61.82
64983;DHT22;69426;28.138;-15.436;2023-05-07T13:36:48;22.14;62.06
64983;DHT22;69426;28.138;-15.436;2023-05-07T13:39:14;22.09;62.75
64983;DHT22;69426;28.138;-15.436;2023-05-07T13:41:39;21.95;62.92
64983;DHT22;69426;28.138;-15.436;2023-05-07T13:44:05;22.16;62.17
64983;DHT22;69426;28.138;-15.436;2023-05-07T13:46:31;22.02;61.59
64983;DHT22;69426;28.138;-15.436;2023-05-07T13:48:56;21.97;61.28
64983;DHT22;69426;28.138;-15.436;2023-05-07T13:51:23;21.77;60.74
64983;DHT22;69426;28.138;-15.436;2023-05-07T13:53:48;22.33;59.04
64983;DHT22;69426;28.138;-15.436;2023-05-07T13:56:14;22.52;59.48
64983;DHT22;69426;28.138;-15.436;2023-05-07T13:58:40;22.46;59.97
64983;DHT22;69426;28.138;-15.436;2023-05-07T14:01:06;22.90;58.70
64983;DHT22;69426;28.138;-15.436;2023-05-07T14:03:32;22.76;59.45
64983;DHT22;69426;28.138;-15.436;2023-05-07T14:05:59;22.26;59.23
64983;DHT22;69426;28.138;-15.436;2023-05-07T14:08:27;22.42;59.16
64983;DHT22;69426;28.138;-15.436;2023-05-07T14:10:53;22.35;59.71
64983;DHT22;69426;28.138;-15.436;2023-05-07T14:13:21;22.36;61.10
64983;DHT22;69426;28.138;-15.436;2023-05-07T14:15:46;22.19;61.28
64983;DHT22;69426;28.138;-15.436;2023-05-07T14:18:15;22.19;61.13
64983;DHT22;69426;28.138;-15.436;2023-05-07T14:20:40;22.49;59.99
64983;DHT22;69426;28.138;-15.436;2023-05-07T14:23:08;22.39;59.68
64983;DHT22;69426;28.138;-15.436;2023-05-07T14:25:34;22.23;61.77
64983;DHT22;69426;28.138;-15.436;2023-05-07T14:28:00;21.94;63.03
64983;DHT22;69426;28.138;-15.436;2023-05-07T14:30:25;22.19;63.11
64983;DHT22;69426;28.138;-15.436;2023-05-07T14:32:51;22.46;63.28
64983;DHT22;69426;28.138;-15.436;2023-05-07T14:35:17;22.42;61.27
64983;DHT22;69426;28.138;-15.436;2023-05-07T14:37:43;22.33;62.40
64983;DHT22;69426;28.138;-15.436;2023-05-07T14:40:09;22.36;62.18
64983;DHT22;69426;28.138;-15.436;2023-05-07T14:42:35;22.26;63.76
64983;DHT22;69426;28.138;-15.436;2023-05-07T14:45:01;22.14;61.42
64983;DHT22;69426;28.138;-15.436;2023-05-07T14:47:26;22.36;59.27
64983;DHT22;69426;28.138;-15.436;2023-05-07T14:49:52;22.43;59.87
64983;DHT22;69426;28.138;-15.436;2023-05-07T14:52:18;22.39;60.33
64983;DHT22;69426;28.138;-15.436;2023-05-07T14:54:44;22.06;59.73
64983;DHT22;69426;28.138;-15.436;2023-05-07T14:57:10;22.26;61.23
64983;DHT22;69426;28.138;-15.436;2023-05-07T14:59:39;22.09;61.95
64983;DHT22;69426;28.138;-15.436;2023-05-07T15:02:05;22.33;59.87
64983;DHT22;69426;28.138;-15.436;2023-05-07T15:04:33;22.35;60.09
64983;DHT22;69426;28.138;-15.436;2023-05-07T15:06:59;22.42;59.45
64983;DHT22;69426;28.138;-15.436;2023-05-07T15:09:25;22.39;59.89
64983;DHT22;69426;28.138;-15.436;2023-05-07T15:11:51;22.33;59.79